Hlavní strana
METAR-TAF:

METAR-TAF

Letiště :

Mezinárodní letiště Entebbe

Entebbe, Uganda

zeměpisná šířka: 00-03N, zeměpisná délka: 032-27E, výška: 1155 m

Aktuální stav počasí

Zpráva byla vytvořena před 48 minutami, v 20:30 UTC
Bezvětří
Teplota 23°C
Vlhkost vzduchu 89%
Tlak 1018 hPa
Viditelnost: 9000 m
Oblačno až skoro zataženo ve výšce 12000 ft

METAR: HUEN 252030Z 00000KT 9000 BKN120 23/21 Q1018

Čas: 00:18 (21:18 UTC)

Předpověď počasí

Zpráva byla vytvořena před 4 hodinami a 18 minutami, v 17:00 UTC
Předpověď platná od 25 v 18 UTC do 26 v 24 UTC
Severní vítr 2 kt
Viditelnost: 8000 m
Změna
od 26 v 02 UTC do 26 v 06 UTC
vítr z různých směrů 11 kt
Viditelnost: 7000 m
Polojasno ve výšce 1700 ft
Skoro jasno ve výšce 1900 ft, Cumulonimbus.
Oblačno až skoro zataženo ve výšce 10000 ft
slabý déšť
Od UTC
Západojihozápadní vítr 6 kt
Viditelnost: 9000 m

TAF: HUEN 251700Z 2518/2624 36002KT 8000 NSC BECMG 2602/2606 VRB11KT 7000 -RA SCT017 FEW019CB BKN100 FM 1700 25006KT 9000 NSC

Stav a předpovědi počasí z více než 4 000 letišť (zprávy METAR a TAF).

Červené a žluté tečky na mapě představují dostupné meteorologické stanice.

Když kurzor umístíte na tečku, zobrazí se název stanice.

Pak kliknutím zobrazíte stav a předpověď počasí.

Chcete-li změnit mapu, kliknutím na zelené tlačítko se znaménkem +mapu přiblížíte, kliknutím na zelené tlačítko se znaménkem – mapu oddálíte a kliknutím na zelené šipky přejdete na sousední mapy.


METAR-TAF: